Terminal Aerodrome Forecast
Issued by NWS Twin Cities, MN

Home | Current Version | Previous Version | Graphics & Text | Print | Product List | Glossary On
Versions: 1 2 3 4 5 6 7 8 9 10 11 12 13 14 15 16 17 18
000
FTUS43 KMPX 281100
TAFEAU
TAF
KEAU 281132Z 2812/2912 28009KT P6SM SCT020 OVC060
     FM281600 27014G20KT P6SM OVC050
     FM282000 28017G24KT P6SM BKN030 OVC050
     FM290200 28013G19KT P6SM FEW030 OVC050
     FM290600 30010KT P6SM OVC060=

USA.gov is the U.S. government's official web portal to all federal, state and local government web resources and services.